createdAt,value
2023-03-01T00:00:08.600Z,22.35
2023-03-01T00:02:38.401Z,21.63
2023-03-01T00:05:05.602Z,25.77
2023-03-01T00:07:32.565Z,24.98
2023-03-01T00:09:59.609Z,28.98
2023-03-01T00:12:26.603Z,25.02
2023-03-01T00:14:53.493Z,26.02
2023-03-01T00:17:20.488Z,45.10
2023-03-01T00:19:47.240Z,65.88
2023-03-01T00:24:39.841Z,50.75
2023-03-01T00:27:06.805Z,52.22
2023-03-01T00:34:25.104Z,49.38
2023-03-01T00:36:52.088Z,44.60
2023-03-01T00:39:19.210Z,32.38
2023-03-01T00:41:46.363Z,41.15
2023-03-01T00:53:59.784Z,38.33
2023-03-01T00:56:27.312Z,31.95
2023-03-01T00:58:54.280Z,40.22
2023-03-01T01:03:49.526Z,42.65
2023-03-01T01:06:17.685Z,36.90
2023-03-01T01:11:11.013Z,35.58
2023-03-01T01:13:38.501Z,38.50
2023-03-01T01:28:13.549Z,21.40
2023-03-01T01:30:40.558Z,21.38
2023-03-01T01:33:07.577Z,20.23
2023-03-01T01:37:59.776Z,21.05
2023-03-01T01:40:26.753Z,20.48
2023-03-01T01:45:30.171Z,19.30
2023-03-01T01:48:01.249Z,21.58
2023-03-01T01:50:28.242Z,20.80
2023-03-01T02:07:52.260Z,20.23
2023-03-01T02:10:21.165Z,21.38
2023-03-01T02:12:48.192Z,21.60
2023-03-01T02:15:15.220Z,21.85
2023-03-01T02:17:42.197Z,21.77
2023-03-01T02:20:29.726Z,22.52
2023-03-01T02:23:08.830Z,20.77
2023-03-01T02:25:48.243Z,21.48
2023-03-01T02:28:15.121Z,21.73
2023-03-01T02:35:56.335Z,19.63
2023-03-01T02:38:24.264Z,20.02
2023-03-01T02:40:51.014Z,20.40
2023-03-01T02:43:17.869Z,20.33
2023-03-01T02:48:10.121Z,20.85
2023-03-01T02:50:37.124Z,20.52
2023-03-01T02:53:04.143Z,21.10
2023-03-01T03:02:51.302Z,21.15
2023-03-01T03:05:21.513Z,22.13
2023-03-01T03:07:49.292Z,21.48
2023-03-01T03:30:37.198Z,23.02
2023-03-01T03:35:31.449Z,21.88
2023-03-01T03:45:37.354Z,23.13
2023-03-01T03:48:06.023Z,22.85
2023-03-01T03:50:33.396Z,23.55
2023-03-01T03:55:31.845Z,23.92
2023-03-01T03:58:03.253Z,22.85
2023-03-01T04:02:57.673Z,24.98
2023-03-01T04:05:25.010Z,25.20
2023-03-01T04:10:28.641Z,29.25
2023-03-01T04:12:57.283Z,30.50
2023-03-01T04:15:25.352Z,30.45
2023-03-01T04:17:53.210Z,31.10
2023-03-01T04:20:27.578Z,31.02
2023-03-01T04:22:59.099Z,30.35
2023-03-01T04:25:25.901Z,29.33
2023-03-01T04:30:19.184Z,29.95
2023-03-01T04:32:46.116Z,29.40
2023-03-01T04:35:13.164Z,30.50
2023-03-01T04:37:40.212Z,30.50
2023-03-01T04:42:44.184Z,30.70
2023-03-01T04:45:17.065Z,29.77
2023-03-01T04:47:45.519Z,29.58
2023-03-01T04:50:13.312Z,29.30
2023-03-01T04:55:43.124Z,26.90
2023-03-01T04:58:10.242Z,28.65
2023-03-01T05:00:37.098Z,25.73
2023-03-01T05:03:03.912Z,28.42
2023-03-01T05:05:35.236Z,26.60
2023-03-01T05:08:03.417Z,25.75
2023-03-01T05:10:31.511Z,24.95
2023-03-01T05:12:58.757Z,24.23
2023-03-01T05:17:59.732Z,23.80
2023-03-01T05:20:27.532Z,24.60
2023-03-01T05:25:22.740Z,23.58
2023-03-01T05:27:49.916Z,22.83
2023-03-01T05:32:47.357Z,19.42
2023-03-01T05:35:15.959Z,19.20
2023-03-01T05:42:43.330Z,18.58
2023-03-01T05:50:02.436Z,19.35
2023-03-01T05:52:29.554Z,19.50
2023-03-01T05:54:56.761Z,18.67
2023-03-01T05:57:23.671Z,18.77
2023-03-01T05:59:50.810Z,18.38
2023-03-01T06:02:17.816Z,18.23
2023-03-01T06:04:48.024Z,18.58
2023-03-01T06:09:40.633Z,18.17
2023-03-01T06:12:07.596Z,18.02
2023-03-01T06:14:34.626Z,18.58
2023-03-01T06:17:01.613Z,18.27
2023-03-01T06:19:28.771Z,18.40
2023-03-01T06:24:21.082Z,19.35
2023-03-01T06:26:48.066Z,19.27
2023-03-01T06:29:15.790Z,18.55
2023-03-01T06:36:33.705Z,19.35
2023-03-01T06:43:52.574Z,20.25
2023-03-01T06:46:19.744Z,19.42
2023-03-01T06:48:47.388Z,21.38
2023-03-01T06:51:14.393Z,21.17
2023-03-01T06:53:41.426Z,21.10
2023-03-01T06:56:08.562Z,21.85
2023-03-01T06:58:35.545Z,23.20
2023-03-01T07:01:06.557Z,24.33
2023-03-01T07:03:33.774Z,21.77
2023-03-01T07:06:01.008Z,20.80
2023-03-01T07:23:08.352Z,19.10
2023-03-01T07:25:35.495Z,19.85
2023-03-01T07:28:02.623Z,18.90
2023-03-01T07:30:29.876Z,19.48
2023-03-01T07:32:58.067Z,19.95
2023-03-01T07:35:26.301Z,27.50
2023-03-01T07:37:53.488Z,27.35
2023-03-01T07:40:20.623Z,24.90
2023-03-01T07:42:47.390Z,81.63
2023-03-01T07:45:14.889Z,41.30
2023-03-01T07:47:41.784Z,37.53
2023-03-01T07:55:17.423Z,21.98
2023-03-01T07:57:44.679Z,20.45
2023-03-01T08:00:12.623Z,21.13
2023-03-01T08:02:40.026Z,20.45
2023-03-01T08:10:35.219Z,16.17
2023-03-01T08:13:02.352Z,17.45
2023-03-01T08:15:29.208Z,17.65
2023-03-01T08:22:47.722Z,15.27
2023-03-01T08:30:06.194Z,15.30
2023-03-01T08:35:02.494Z,16.45
2023-03-01T08:37:32.138Z,10.55
2023-03-01T08:39:59.307Z,15.27
2023-03-01T08:42:26.356Z,17.20
2023-03-01T08:44:53.245Z,15.48
2023-03-01T08:49:45.732Z,17.20
2023-03-01T08:52:12.741Z,14.18
2023-03-01T08:54:39.622Z,16.60
2023-03-01T08:57:06.745Z,16.73
2023-03-01T08:59:38.394Z,16.13
2023-03-01T09:09:22.712Z,14.88
2023-03-01T09:11:51.251Z,15.52
2023-03-01T09:14:18.174Z,12.48
2023-03-01T09:16:45.221Z,14.88
2023-03-01T09:19:12.634Z,11.57
2023-03-01T09:21:41.236Z,12.18
2023-03-01T09:26:39.217Z,13.43
2023-03-01T09:29:06.211Z,10.48
2023-03-01T09:31:33.218Z,9.40
2023-03-01T09:34:00.099Z,11.50
2023-03-01T09:36:27.231Z,11.60
2023-03-01T09:46:21.993Z,8.13
2023-03-01T09:48:53.255Z,7.00
2023-03-01T09:51:27.251Z,6.18
2023-03-01T09:53:55.826Z,7.38
2023-03-01T09:58:53.915Z,9.85
2023-03-01T10:06:35.218Z,7.22
2023-03-01T10:21:52.040Z,11.50
2023-03-01T10:24:22.888Z,8.60
2023-03-01T10:39:13.546Z,5.28
2023-03-01T10:41:53.162Z,5.15
2023-03-01T10:44:37.165Z,5.82
2023-03-01T10:47:04.215Z,5.75
2023-03-01T10:49:31.213Z,6.70
2023-03-01T11:02:15.025Z,4.70
2023-03-01T11:05:29.523Z,5.15
2023-03-01T11:15:28.140Z,5.22
2023-03-01T11:18:05.755Z,7.70
2023-03-01T11:25:43.238Z,5.32
2023-03-01T11:28:15.227Z,5.32
2023-03-01T11:31:05.452Z,5.25
2023-03-01T11:33:48.092Z,4.85
2023-03-01T11:38:54.720Z,5.32
2023-03-01T11:41:22.984Z,5.93
2023-03-01T11:46:28.191Z,5.75
2023-03-01T11:51:57.488Z,6.28
2023-03-01T11:54:41.777Z,7.78
2023-03-01T11:57:08.791Z,8.07
2023-03-01T11:59:52.949Z,7.18
2023-03-01T12:05:16.136Z,8.60
2023-03-01T12:08:18.718Z,6.22
2023-03-01T12:16:17.630Z,9.35
2023-03-01T12:18:54.645Z,7.68
2023-03-01T12:21:40.149Z,9.02
2023-03-01T12:24:07.232Z,7.70
2023-03-01T12:26:36.032Z,11.05
2023-03-01T12:29:02.828Z,7.78
2023-03-01T12:31:54.166Z,10.00
2023-03-01T12:34:37.762Z,7.57
2023-03-01T12:37:16.882Z,10.02
2023-03-01T12:47:49.902Z,8.80
2023-03-01T13:14:30.400Z,8.60
2023-03-01T13:16:57.393Z,10.70
2023-03-01T13:19:25.704Z,6.32
2023-03-01T13:27:02.713Z,12.38
2023-03-01T13:29:42.910Z,7.20
2023-03-01T13:34:46.500Z,7.47
2023-03-01T13:39:46.295Z,6.05
2023-03-01T13:45:43.110Z,7.20
2023-03-01T13:48:36.315Z,5.95
2023-03-01T13:51:05.988Z,7.05
2023-03-01T13:53:36.851Z,7.22
2023-03-01T13:56:08.529Z,5.90
2023-03-01T13:58:45.502Z,5.25
2023-03-01T14:01:33.215Z,6.80
2023-03-01T14:04:01.092Z,7.65
2023-03-01T14:06:32.414Z,6.35
2023-03-01T14:09:04.965Z,6.72
2023-03-01T14:11:39.131Z,5.18
2023-03-01T14:19:10.700Z,5.30
2023-03-01T14:21:40.026Z,5.65
2023-03-01T14:24:07.142Z,4.88
2023-03-01T14:29:02.590Z,5.05
2023-03-01T14:31:29.513Z,5.13
2023-03-01T14:33:57.328Z,5.65
2023-03-01T14:36:32.474Z,3.83
2023-03-01T14:39:05.969Z,4.72
2023-03-01T14:44:07.763Z,3.80
2023-03-01T14:54:30.486Z,3.85
2023-03-01T15:01:54.506Z,4.70
2023-03-01T15:04:22.633Z,4.53
2023-03-01T15:06:52.492Z,3.95
2023-03-01T15:09:19.916Z,5.00
2023-03-01T15:14:38.649Z,4.65
2023-03-01T15:21:57.158Z,5.00
2023-03-01T15:29:57.077Z,5.07
2023-03-01T15:32:23.979Z,4.63
2023-03-01T15:34:51.064Z,4.97
2023-03-01T15:37:36.445Z,5.30
2023-03-01T15:40:05.372Z,4.40
2023-03-01T15:42:32.378Z,4.65
2023-03-01T15:47:41.500Z,5.68
2023-03-01T15:50:41.101Z,5.68
2023-03-01T15:53:12.293Z,4.90
2023-03-01T15:55:39.248Z,6.65
2023-03-01T16:05:43.325Z,4.97
2023-03-01T16:08:10.472Z,8.13
2023-03-01T16:10:37.455Z,4.20
2023-03-01T16:13:05.450Z,6.53
2023-03-01T16:15:34.504Z,4.32
2023-03-01T16:18:01.707Z,4.40
2023-03-01T16:20:32.099Z,3.92
2023-03-01T16:26:22.264Z,4.75
2023-03-01T16:28:49.146Z,4.43
2023-03-01T16:31:19.171Z,4.40
2023-03-01T16:41:13.054Z,4.95
2023-03-01T16:51:17.500Z,6.15
2023-03-01T16:53:46.375Z,6.93
2023-03-01T16:56:14.989Z,6.30
2023-03-01T16:58:42.694Z,5.20
2023-03-01T17:03:47.314Z,6.00
2023-03-01T17:06:16.545Z,6.43
2023-03-01T17:08:43.697Z,5.28
2023-03-01T17:11:12.407Z,6.95
2023-03-01T17:13:40.143Z,9.98
2023-03-01T17:16:08.522Z,8.80
2023-03-01T17:18:35.771Z,9.48
2023-03-01T17:21:02.931Z,8.50
2023-03-01T17:23:30.539Z,7.10
2023-03-01T17:25:57.768Z,6.18
2023-03-01T17:28:25.947Z,8.05
2023-03-01T17:30:53.106Z,6.88
2023-03-01T17:33:20.673Z,7.78
2023-03-01T17:35:48.303Z,7.50
2023-03-01T17:43:44.592Z,5.53
2023-03-01T17:46:11.769Z,7.60
2023-03-01T17:48:38.861Z,6.53
2023-03-01T17:58:27.967Z,8.48
2023-03-01T18:00:55.176Z,8.07
2023-03-01T18:03:22.176Z,9.45
2023-03-01T18:13:08.545Z,9.52
2023-03-01T18:18:14.407Z,8.70
2023-03-01T18:20:56.541Z,8.23
2023-03-01T18:28:19.615Z,8.07
2023-03-01T18:30:46.737Z,8.68
2023-03-01T18:33:17.966Z,6.57
2023-03-01T18:38:16.442Z,7.50
2023-03-01T18:40:44.394Z,8.57
2023-03-01T19:00:19.178Z,7.32
2023-03-01T19:02:47.884Z,7.35
2023-03-01T19:05:17.342Z,6.35
2023-03-01T19:17:33.864Z,23.13
2023-03-01T19:20:00.836Z,21.55
2023-03-01T19:24:53.769Z,27.50
2023-03-01T19:27:20.909Z,27.92
2023-03-01T19:29:47.905Z,20.83
2023-03-01T19:32:15.192Z,17.88
2023-03-01T19:34:42.551Z,16.48
2023-03-01T19:42:05.090Z,14.20
2023-03-01T19:44:32.252Z,17.23
2023-03-01T19:46:59.251Z,19.45
2023-03-01T19:49:27.185Z,17.35
2023-03-01T19:54:20.405Z,17.50
2023-03-01T19:56:47.756Z,15.75
2023-03-01T20:01:42.570Z,14.90
2023-03-01T20:04:09.808Z,15.60
2023-03-01T20:06:37.804Z,19.80
2023-03-01T20:09:19.331Z,14.45
2023-03-01T20:14:13.217Z,17.77
2023-03-01T20:16:43.489Z,22.23
2023-03-01T20:24:01.343Z,22.30
2023-03-01T20:26:29.634Z,27.30
2023-03-01T20:28:57.537Z,25.65
2023-03-01T20:31:29.492Z,19.90
2023-03-01T20:36:24.048Z,31.77
2023-03-01T20:38:52.390Z,28.88
2023-03-01T20:48:45.096Z,14.82
2023-03-01T20:51:13.256Z,15.13
2023-03-01T20:56:07.217Z,24.17
2023-03-01T20:58:35.866Z,22.45
2023-03-01T21:01:03.931Z,24.58
2023-03-01T21:16:19.778Z,30.88
2023-03-01T21:18:47.189Z,25.73
2023-03-01T21:21:21.893Z,20.35
2023-03-01T21:23:49.334Z,19.38
2023-03-01T21:26:19.608Z,17.35
2023-03-01T21:28:46.944Z,17.27
2023-03-01T21:31:15.420Z,18.45
2023-03-01T21:36:12.653Z,18.92
2023-03-01T21:38:41.550Z,23.08
2023-03-01T21:53:26.960Z,16.45
2023-03-01T21:55:53.985Z,27.58
2023-03-01T21:58:21.426Z,20.13
2023-03-01T22:00:48.847Z,17.77
2023-03-01T22:03:16.361Z,22.98
2023-03-01T22:05:43.438Z,21.42
2023-03-01T22:08:10.448Z,15.15
2023-03-01T22:13:08.148Z,13.20
2023-03-01T22:15:35.292Z,12.18
2023-03-01T22:20:27.865Z,13.40
2023-03-01T22:22:54.826Z,13.55
2023-03-01T22:25:22.000Z,13.63
2023-03-01T22:27:48.958Z,13.15
2023-03-01T22:30:25.348Z,14.32
2023-03-01T22:32:52.544Z,20.75
2023-03-01T22:35:19.772Z,17.58
2023-03-01T22:37:46.630Z,18.45
2023-03-01T22:40:13.625Z,19.45
2023-03-01T22:42:40.354Z,23.70
2023-03-01T22:45:07.762Z,20.05
2023-03-01T22:47:37.741Z,21.52
2023-03-01T22:50:08.726Z,27.23
2023-03-01T22:52:36.094Z,18.90
2023-03-01T22:55:02.970Z,18.13
2023-03-01T22:57:29.874Z,17.63
2023-03-01T22:59:56.736Z,18.05
2023-03-01T23:02:25.577Z,16.73
2023-03-01T23:07:20.162Z,18.58
2023-03-01T23:09:48.868Z,17.92
2023-03-01T23:12:17.517Z,16.85
2023-03-01T23:14:44.657Z,16.60
2023-03-01T23:17:13.066Z,15.48
2023-03-01T23:22:05.649Z,16.75
2023-03-01T23:24:34.248Z,15.27
2023-03-01T23:27:02.402Z,15.43
2023-03-01T23:29:29.428Z,16.77
2023-03-01T23:31:57.586Z,17.55
2023-03-01T23:36:54.166Z,18.17
2023-03-01T23:39:21.800Z,18.33
2023-03-01T23:44:16.253Z,19.48
2023-03-01T23:46:43.349Z,18.63
2023-03-01T23:49:11.836Z,19.08
2023-03-01T23:51:40.287Z,18.13
2023-03-01T23:54:07.523Z,17.23
2023-03-01T23:59:09.263Z,19.83
